sensor_id;sensor_type;location;lat;lon;timestamp;P1;P2;P0
56495;PMS5003;42804;55.762;38.084;2023-02-11T00:00:59;27.20;21.40;12.00
56495;PMS5003;42804;55.762;38.084;2023-02-11T00:03:27;21.60;19.00;9.00
56495;PMS5003;42804;55.762;38.084;2023-02-11T00:05:56;25.80;21.60;12.00
56495;PMS5003;42804;55.762;38.084;2023-02-11T00:08:25;20.80;16.40;7.00
56495;PMS5003;42804;55.762;38.084;2023-02-11T00:10:53;12.60;8.40;3.20
56495;PMS5003;42804;55.762;38.084;2023-02-11T00:13:22;22.60;15.20;5.20
56495;PMS5003;42804;55.762;38.084;2023-02-11T00:15:51;24.00;19.80;11.00
56495;PMS5003;42804;55.762;38.084;2023-02-11T00:18:21;31.40;23.80;13.00
56495;PMS5003;42804;55.762;38.084;2023-02-11T00:20:49;19.80;17.80;11.20
56495;PMS5003;42804;55.762;38.084;2023-02-11T00:23:17;14.00;11.20;5.20
56495;PMS5003;42804;55.762;38.084;2023-02-11T00:25:45;18.40;16.40;8.20
56495;PMS5003;42804;55.762;38.084;2023-02-11T00:28:14;21.20;18.80;12.00
56495;PMS5003;42804;55.762;38.084;2023-02-11T00:30:42;14.20;12.00;4.80
56495;PMS5003;42804;55.762;38.084;2023-02-11T00:33:10;14.20;10.00;6.00
56495;PMS5003;42804;55.762;38.084;2023-02-11T00:35:40;24.20;15.80;9.00
56495;PMS5003;42804;55.762;38.084;2023-02-11T00:38:08;19.40;17.00;9.80
56495;PMS5003;42804;55.762;38.084;2023-02-11T00:40:36;19.40;12.80;4.00
56495;PMS5003;42804;55.762;38.084;2023-02-11T00:43:04;18.80;14.20;8.60
56495;PMS5003;42804;55.762;38.084;2023-02-11T00:45:33;22.80;15.60;8.20
56495;PMS5003;42804;55.762;38.084;2023-02-11T00:48:01;9.60;7.80;3.00
56495;PMS5003;42804;55.762;38.084;2023-02-11T00:50:29;21.60;19.60;11.80
56495;PMS5003;42804;55.762;38.084;2023-02-11T00:52:59;11.20;9.40;3.40
56495;PMS5003;42804;55.762;38.084;2023-02-11T00:55:28;17.20;15.00;7.00
56495;PMS5003;42804;55.762;38.084;2023-02-11T00:57:56;16.80;13.60;8.60
56495;PMS5003;42804;55.762;38.084;2023-02-11T01:00:26;19.80;16.00;9.00
56495;PMS5003;42804;55.762;38.084;2023-02-11T01:02:54;18.40;14.20;9.40
56495;PMS5003;42804;55.762;38.084;2023-02-11T01:05:23;15.40;10.80;6.00
56495;PMS5003;42804;55.762;38.084;2023-02-11T01:07:51;22.00;15.00;9.00
56495;PMS5003;42804;55.762;38.084;2023-02-11T01:10:22;12.20;9.80;6.00
56495;PMS5003;42804;55.762;38.084;2023-02-11T01:12:52;15.60;14.20;8.20
56495;PMS5003;42804;55.762;38.084;2023-02-11T01:15:20;18.60;15.80;7.80
56495;PMS5003;42804;55.762;38.084;2023-02-11T01:17:48;19.00;15.40;8.40
56495;PMS5003;42804;55.762;38.084;2023-02-11T01:20:20;16.40;13.40;9.20
56495;PMS5003;42804;55.762;38.084;2023-02-11T01:22:48;10.20;9.40;6.00
56495;PMS5003;42804;55.762;38.084;2023-02-11T01:25:17;19.20;15.00;8.20
56495;PMS5003;42804;55.762;38.084;2023-02-11T01:27:46;15.60;12.40;9.40
56495;PMS5003;42804;55.762;38.084;2023-02-11T01:30:15;15.60;14.40;7.20
56495;PMS5003;42804;55.762;38.084;2023-02-11T01:32:46;19.20;17.20;9.20
56495;PMS5003;42804;55.762;38.084;2023-02-11T01:35:14;20.60;17.20;9.00
56495;PMS5003;42804;55.762;38.084;2023-02-11T01:37:42;25.00;18.80;10.40
56495;PMS5003;42804;55.762;38.084;2023-02-11T01:40:11;16.00;15.00;9.00
56495;PMS5003;42804;55.762;38.084;2023-02-11T01:42:39;21.00;13.60;6.00
56495;PMS5003;42804;55.762;38.084;2023-02-11T01:48:01;12.40;11.60;9.00
56495;PMS5003;42804;55.762;38.084;2023-02-11T01:50:29;13.20;9.40;4.20
56495;PMS5003;42804;55.762;38.084;2023-02-11T01:52:58;11.80;9.80;6.40
56495;PMS5003;42804;55.762;38.084;2023-02-11T01:55:46;16.60;12.20;7.80
56495;PMS5003;42804;55.762;38.084;2023-02-11T01:58:32;13.20;10.20;4.00
56495;PMS5003;42804;55.762;38.084;2023-02-11T02:01:03;13.40;11.20;6.60
56495;PMS5003;42804;55.762;38.084;2023-02-11T02:03:32;15.40;13.80;7.40
56495;PMS5003;42804;55.762;38.084;2023-02-11T02:06:05;15.40;8.60;2.60
56495;PMS5003;42804;55.762;38.084;2023-02-11T02:08:35;18.00;15.60;7.80
56495;PMS5003;42804;55.762;38.084;2023-02-11T02:11:05;18.40;14.20;6.20
56495;PMS5003;42804;55.762;38.084;2023-02-11T02:13:36;12.00;11.80;6.20
56495;PMS5003;42804;55.762;38.084;2023-02-11T02:16:04;7.00;3.80;3.00
56495;PMS5003;42804;55.762;38.084;2023-02-11T02:18:38;17.40;13.60;7.00
56495;PMS5003;42804;55.762;38.084;2023-02-11T02:24:09;16.00;13.80;7.40
56495;PMS5003;42804;55.762;38.084;2023-02-11T02:26:50;17.80;14.20;7.40
56495;PMS5003;42804;55.762;38.084;2023-02-11T02:29:33;12.20;11.60;6.80
56495;PMS5003;42804;55.762;38.084;2023-02-11T02:32:23;12.40;10.00;6.40
56495;PMS5003;42804;55.762;38.084;2023-02-11T02:34:57;19.00;12.40;6.40
56495;PMS5003;42804;55.762;38.084;2023-02-11T02:37:30;15.60;13.40;7.00
56495;PMS5003;42804;55.762;38.084;2023-02-11T02:40:02;10.80;5.20;1.40
56495;PMS5003;42804;55.762;38.084;2023-02-11T02:42:31;11.60;7.00;3.60
56495;PMS5003;42804;55.762;38.084;2023-02-11T02:45:00;10.80;7.40;4.80
56495;PMS5003;42804;55.762;38.084;2023-02-11T02:47:30;14.20;11.60;6.40
56495;PMS5003;42804;55.762;38.084;2023-02-11T02:49:58;13.20;10.00;6.00
56495;PMS5003;42804;55.762;38.084;2023-02-11T02:52:29;13.80;9.40;5.20
56495;PMS5003;42804;55.762;38.084;2023-02-11T02:55:05;9.80;9.20;4.00
56495;PMS5003;42804;55.762;38.084;2023-02-11T02:57:37;13.60;10.00;7.00
56495;PMS5003;42804;55.762;38.084;2023-02-11T03:00:11;14.20;10.00;6.00
56495;PMS5003;42804;55.762;38.084;2023-02-11T03:02:45;7.00;7.00;3.00
56495;PMS5003;42804;55.762;38.084;2023-02-11T03:05:17;8.60;5.60;1.00
56495;PMS5003;42804;55.762;38.084;2023-02-11T03:07:50;14.60;12.00;6.40
56495;PMS5003;42804;55.762;38.084;2023-02-11T03:10:22;0.80;0.00;0.00
56495;PMS5003;42804;55.762;38.084;2023-02-11T03:12:52;8.20;6.40;2.20
56495;PMS5003;42804;55.762;38.084;2023-02-11T03:15:22;3.20;2.20;0.40
56495;PMS5003;42804;55.762;38.084;2023-02-11T03:17:53;13.00;10.40;6.00
56495;PMS5003;42804;55.762;38.084;2023-02-11T03:20:25;15.00;9.60;6.00
56495;PMS5003;42804;55.762;38.084;2023-02-11T03:22:55;6.80;3.80;1.00
56495;PMS5003;42804;55.762;38.084;2023-02-11T03:25:35;9.80;7.00;3.00
56495;PMS5003;42804;55.762;38.084;2023-02-11T03:28:04;5.60;4.00;0.60
56495;PMS5003;42804;55.762;38.084;2023-02-11T03:30:36;15.00;11.00;6.40
56495;PMS5003;42804;55.762;38.084;2023-02-11T03:33:08;9.00;7.40;3.80
56495;PMS5003;42804;55.762;38.084;2023-02-11T03:35:40;9.00;5.20;3.60
56495;PMS5003;42804;55.762;38.084;2023-02-11T03:38:10;9.60;9.00;6.00
56495;PMS5003;42804;55.762;38.084;2023-02-11T03:40:40;12.80;10.60;4.00
56495;PMS5003;42804;55.762;38.084;2023-02-11T03:43:12;14.80;12.60;6.60
56495;PMS5003;42804;55.762;38.084;2023-02-11T03:45:44;12.00;10.00;6.00
56495;PMS5003;42804;55.762;38.084;2023-02-11T03:48:15;12.20;10.40;6.00
56495;PMS5003;42804;55.762;38.084;2023-02-11T03:50:45;9.00;8.40;3.80
56495;PMS5003;42804;55.762;38.084;2023-02-11T03:53:15;12.00;10.60;6.60
56495;PMS5003;42804;55.762;38.084;2023-02-11T03:55:44;8.80;6.60;1.80
56495;PMS5003;42804;55.762;38.084;2023-02-11T03:58:14;9.80;8.40;3.40
56495;PMS5003;42804;55.762;38.084;2023-02-11T04:00:43;13.00;10.80;4.80
56495;PMS5003;42804;55.762;38.084;2023-02-11T04:03:11;3.00;3.00;1.80
56495;PMS5003;42804;55.762;38.084;2023-02-11T04:05:41;7.00;4.00;1.00
56495;PMS5003;42804;55.762;38.084;2023-02-11T04:08:09;8.20;7.80;3.00
56495;PMS5003;42804;55.762;38.084;2023-02-11T04:10:37;7.80;7.00;4.00
56495;PMS5003;42804;55.762;38.084;2023-02-11T04:13:05;7.20;6.00;3.00
56495;PMS5003;42804;55.762;38.084;2023-02-11T04:15:34;10.40;9.60;4.00
56495;PMS5003;42804;55.762;38.084;2023-02-11T04:18:02;8.60;3.80;0.80
56495;PMS5003;42804;55.762;38.084;2023-02-11T04:20:30;9.80;3.20;1.00
56495;PMS5003;42804;55.762;38.084;2023-02-11T04:23:00;8.80;6.40;2.20
56495;PMS5003;42804;55.762;38.084;2023-02-11T04:25:28;9.20;7.40;4.00
56495;PMS5003;42804;55.762;38.084;2023-02-11T04:27:56;10.40;7.40;3.20
56495;PMS5003;42804;55.762;38.084;2023-02-11T04:30:24;8.20;7.20;3.40
56495;PMS5003;42804;55.762;38.084;2023-02-11T04:32:53;8.60;6.60;3.20
56495;PMS5003;42804;55.762;38.084;2023-02-11T04:35:21;9.60;7.00;3.00
56495;PMS5003;42804;55.762;38.084;2023-02-11T04:37:49;10.40;9.40;6.20
56495;PMS5003;42804;55.762;38.084;2023-02-11T04:40:19;9.20;8.20;4.00
56495;PMS5003;42804;55.762;38.084;2023-02-11T04:42:47;8.20;6.60;3.00
56495;PMS5003;42804;55.762;38.084;2023-02-11T04:45:15;7.00;6.40;3.00
56495;PMS5003;42804;55.762;38.084;2023-02-11T04:47:43;7.00;7.00;4.00
56495;PMS5003;42804;55.762;38.084;2023-02-11T04:50:11;6.00;4.00;2.60
56495;PMS5003;42804;55.762;38.084;2023-02-11T04:52:40;8.00;6.40;3.80
56495;PMS5003;42804;55.762;38.084;2023-02-11T04:55:08;7.80;5.60;3.40
56495;PMS5003;42804;55.762;38.084;2023-02-11T04:57:37;4.00;4.00;1.40
56495;PMS5003;42804;55.762;38.084;2023-02-11T05:00:06;7.40;7.00;3.20
56495;PMS5003;42804;55.762;38.084;2023-02-11T05:02:35;6.40;6.00;3.00
56495;PMS5003;42804;55.762;38.084;2023-02-11T05:05:04;7.40;3.00;1.80
56495;PMS5003;42804;55.762;38.084;2023-02-11T05:07:32;6.80;1.00;0.00
56495;PMS5003;42804;55.762;38.084;2023-02-11T05:10:00;7.80;6.40;4.00
56495;PMS5003;42804;55.762;38.084;2023-02-11T05:12:29;12.20;9.60;5.60
56495;PMS5003;42804;55.762;38.084;2023-02-11T05:14:58;9.00;6.00;3.00
56495;PMS5003;42804;55.762;38.084;2023-02-11T05:17:29;4.00;3.60;1.40
56495;PMS5003;42804;55.762;38.084;2023-02-11T05:19:57;4.40;3.00;1.00
56495;PMS5003;42804;55.762;38.084;2023-02-11T05:22:26;6.00;5.60;2.20
56495;PMS5003;42804;55.762;38.084;2023-02-11T05:24:54;9.00;6.60;3.00
56495;PMS5003;42804;55.762;38.084;2023-02-11T05:27:22;11.80;7.00;4.00
56495;PMS5003;42804;55.762;38.084;2023-02-11T05:29:50;10.80;8.40;5.20
56495;PMS5003;42804;55.762;38.084;2023-02-11T05:32:20;7.80;7.80;4.00
56495;PMS5003;42804;55.762;38.084;2023-02-11T05:34:48;6.00;6.00;3.00
56495;PMS5003;42804;55.762;38.084;2023-02-11T05:37:16;3.00;0.80;0.00
56495;PMS5003;42804;55.762;38.084;2023-02-11T05:39:44;9.00;7.00;4.00
56495;PMS5003;42804;55.762;38.084;2023-02-11T05:42:13;5.20;3.20;0.60
56495;PMS5003;42804;55.762;38.084;2023-02-11T05:44:41;5.20;4.00;3.00
56495;PMS5003;42804;55.762;38.084;2023-02-11T05:47:09;11.40;7.20;3.00
56495;PMS5003;42804;55.762;38.084;2023-02-11T05:49:39;10.00;7.00;3.60
56495;PMS5003;42804;55.762;38.084;2023-02-11T05:52:07;6.00;5.60;3.00
56495;PMS5003;42804;55.762;38.084;2023-02-11T05:54:35;8.20;6.00;3.00
56495;PMS5003;42804;55.762;38.084;2023-02-11T05:57:03;6.40;4.00;1.00
56495;PMS5003;42804;55.762;38.084;2023-02-11T05:59:31;7.80;7.20;4.20
56495;PMS5003;42804;55.762;38.084;2023-02-11T06:01:59;13.80;9.00;6.00
56495;PMS5003;42804;55.762;38.084;2023-02-11T06:04:28;14.60;11.20;5.60
56495;PMS5003;42804;55.762;38.084;2023-02-11T06:06:57;7.00;6.60;3.80
56495;PMS5003;42804;55.762;38.084;2023-02-11T06:09:25;3.00;3.00;1.00
56495;PMS5003;42804;55.762;38.084;2023-02-11T06:11:54;6.60;4.00;2.60
56495;PMS5003;42804;55.762;38.084;2023-02-11T06:14:22;7.00;6.00;2.60
56495;PMS5003;42804;55.762;38.084;2023-02-11T06:16:50;4.00;4.00;3.00
56495;PMS5003;42804;55.762;38.084;2023-02-11T06:19:18;4.00;4.00;3.00
56495;PMS5003;42804;55.762;38.084;2023-02-11T06:21:47;7.80;4.00;0.00
56495;PMS5003;42804;55.762;38.084;2023-02-11T06:24:16;6.00;4.00;3.00
56495;PMS5003;42804;55.762;38.084;2023-02-11T06:27:04;4.60;4.60;3.00
56495;PMS5003;42804;55.762;38.084;2023-02-11T06:29:33;3.40;3.00;1.00
56495;PMS5003;42804;55.762;38.084;2023-02-11T06:32:01;7.40;3.80;1.00
56495;PMS5003;42804;55.762;38.084;2023-02-11T06:34:29;6.80;6.60;2.60
56495;PMS5003;42804;55.762;38.084;2023-02-11T06:36:57;8.20;7.60;5.20
56495;PMS5003;42804;55.762;38.084;2023-02-11T06:39:27;13.40;12.20;6.80
56495;PMS5003;42804;55.762;38.084;2023-02-11T06:41:55;10.80;8.60;3.80
56495;PMS5003;42804;55.762;38.084;2023-02-11T06:44:23;8.40;7.80;6.00
56495;PMS5003;42804;55.762;38.084;2023-02-11T06:46:52;13.00;12.00;7.00
56495;PMS5003;42804;55.762;38.084;2023-02-11T06:49:20;11.80;9.60;5.20
56495;PMS5003;42804;55.762;38.084;2023-02-11T06:51:48;10.00;9.00;6.00
56495;PMS5003;42804;55.762;38.084;2023-02-11T06:54:17;3.80;3.80;2.60
56495;PMS5003;42804;55.762;38.084;2023-02-11T06:56:46;9.00;8.50;6.50
56495;PMS5003;42804;55.762;38.084;2023-02-11T06:59:15;9.00;6.75;4.00
56495;PMS5003;42804;55.762;38.084;2023-02-11T07:01:43;15.80;13.00;7.00
56495;PMS5003;42804;55.762;38.084;2023-02-11T07:04:11;12.25;9.25;6.00
56495;PMS5003;42804;55.762;38.084;2023-02-11T07:06:41;19.00;11.75;8.00
56495;PMS5003;42804;55.762;38.084;2023-02-11T07:09:09;6.00;3.00;0.00
56495;PMS5003;42804;55.762;38.084;2023-02-11T07:11:37;17.60;13.20;7.80
56495;PMS5003;42804;55.762;38.084;2023-02-11T07:14:07;14.60;10.40;6.20
56495;PMS5003;42804;55.762;38.084;2023-02-11T07:16:36;17.20;13.20;9.00
56495;PMS5003;42804;55.762;38.084;2023-02-11T07:19:05;7.20;4.00;1.00
56495;PMS5003;42804;55.762;38.084;2023-02-11T07:21:33;13.00;10.40;6.80
56495;PMS5003;42804;55.762;38.084;2023-02-11T07:24:05;18.60;15.20;8.60
56495;PMS5003;42804;55.762;38.084;2023-02-11T07:26:37;4.80;3.60;3.00
56495;PMS5003;42804;55.762;38.084;2023-02-11T07:29:05;11.20;10.40;6.60
56495;PMS5003;42804;55.762;38.084;2023-02-11T07:31:35;16.40;14.60;8.20
56495;PMS5003;42804;55.762;38.084;2023-02-11T07:34:03;12.50;12.50;7.00
56495;PMS5003;42804;55.762;38.084;2023-02-11T07:36:31;11.20;10.00;6.00
56495;PMS5003;42804;55.762;38.084;2023-02-11T07:39:00;7.40;7.00;2.20
56495;PMS5003;42804;55.762;38.084;2023-02-11T07:41:28;21.40;12.80;7.00
56495;PMS5003;42804;55.762;38.084;2023-02-11T07:43:57;16.00;10.60;6.80
56495;PMS5003;42804;55.762;38.084;2023-02-11T07:46:26;16.00;14.20;9.00
56495;PMS5003;42804;55.762;38.084;2023-02-11T07:48:55;16.20;14.20;6.40
56495;PMS5003;42804;55.762;38.084;2023-02-11T07:51:25;12.80;11.60;7.00
56495;PMS5003;42804;55.762;38.084;2023-02-11T07:53:53;28.80;25.00;9.80
56495;PMS5003;42804;55.762;38.084;2023-02-11T07:56:22;21.60;15.00;9.60
56495;PMS5003;42804;55.762;38.084;2023-02-11T07:58:50;21.40;17.00;10.80
56495;PMS5003;42804;55.762;38.084;2023-02-11T08:01:20;18.40;15.60;9.40
56495;PMS5003;42804;55.762;38.084;2023-02-11T08:03:51;11.60;10.00;6.00
56495;PMS5003;42804;55.762;38.084;2023-02-11T08:06:21;17.80;13.00;8.60
56495;PMS5003;42804;55.762;38.084;2023-02-11T08:08:50;15.80;12.80;7.40
56495;PMS5003;42804;55.762;38.084;2023-02-11T08:11:19;20.60;16.00;9.80
56495;PMS5003;42804;55.762;38.084;2023-02-11T08:13:47;8.20;7.40;3.80
56495;PMS5003;42804;55.762;38.084;2023-02-11T08:16:18;13.00;12.00;8.20
56495;PMS5003;42804;55.762;38.084;2023-02-11T08:18:46;17.80;17.00;11.60
56495;PMS5003;42804;55.762;38.084;2023-02-11T08:21:16;16.80;13.40;7.40
56495;PMS5003;42804;55.762;38.084;2023-02-11T08:23:46;18.20;14.60;7.00
56495;PMS5003;42804;55.762;38.084;2023-02-11T08:26:15;20.20;15.80;6.40
56495;PMS5003;42804;55.762;38.084;2023-02-11T08:28:45;19.00;17.20;10.00
56495;PMS5003;42804;55.762;38.084;2023-02-11T08:31:14;20.20;15.20;8.20
56495;PMS5003;42804;55.762;38.084;2023-02-11T08:33:43;18.20;15.40;8.20
56495;PMS5003;42804;55.762;38.084;2023-02-11T08:36:12;17.60;14.60;9.60
56495;PMS5003;42804;55.762;38.084;2023-02-11T08:38:41;8.40;3.60;0.00
56495;PMS5003;42804;55.762;38.084;2023-02-11T08:41:11;18.80;17.20;10.80
56495;PMS5003;42804;55.762;38.084;2023-02-11T08:43:40;24.40;19.40;12.00
56495;PMS5003;42804;55.762;38.084;2023-02-11T08:46:09;20.00;14.50;7.00
56495;PMS5003;42804;55.762;38.084;2023-02-11T08:48:39;16.40;15.20;9.20
56495;PMS5003;42804;55.762;38.084;2023-02-11T08:51:08;21.20;16.40;9.00
56495;PMS5003;42804;55.762;38.084;2023-02-11T08:53:36;10.60;10.20;5.20
56495;PMS5003;42804;55.762;38.084;2023-02-11T08:56:05;14.20;13.00;9.00
56495;PMS5003;42804;55.762;38.084;2023-02-11T08:58:35;20.20;18.00;11.60
56495;PMS5003;42804;55.762;38.084;2023-02-11T09:01:07;14.40;12.80;10.00
56495;PMS5003;42804;55.762;38.084;2023-02-11T09:03:35;29.00;24.00;13.80
56495;PMS5003;42804;55.762;38.084;2023-02-11T09:06:04;22.40;19.40;12.20
56495;PMS5003;42804;55.762;38.084;2023-02-11T09:08:33;30.60;24.40;13.40
56495;PMS5003;42804;55.762;38.084;2023-02-11T09:11:01;32.60;26.80;15.60
56495;PMS5003;42804;55.762;38.084;2023-02-11T09:13:30;24.40;23.20;13.80
56495;PMS5003;42804;55.762;38.084;2023-02-11T09:16:00;29.80;24.00;15.40
56495;PMS5003;42804;55.762;38.084;2023-02-11T09:18:29;17.60;16.00;9.80
56495;PMS5003;42804;55.762;38.084;2023-02-11T09:21:00;22.80;18.80;11.60
56495;PMS5003;42804;55.762;38.084;2023-02-11T09:23:29;23.20;19.80;11.20
56495;PMS5003;42804;55.762;38.084;2023-02-11T09:25:57;31.80;28.00;17.60
56495;PMS5003;42804;55.762;38.084;2023-02-11T09:28:25;20.20;15.80;8.80
56495;PMS5003;42804;55.762;38.084;2023-02-11T09:30:55;25.80;20.40;12.80
56495;PMS5003;42804;55.762;38.084;2023-02-11T09:33:24;33.20;21.40;13.40
56495;PMS5003;42804;55.762;38.084;2023-02-11T09:35:52;23.80;18.20;12.00
56495;PMS5003;42804;55.762;38.084;2023-02-11T09:38:21;28.00;22.40;13.40
56495;PMS5003;42804;55.762;38.084;2023-02-11T09:40:49;31.75;24.00;12.00
56495;PMS5003;42804;55.762;38.084;2023-02-11T09:43:18;24.80;15.60;9.00
56495;PMS5003;42804;55.762;38.084;2023-02-11T09:45:47;7.75;6.75;4.00
56495;PMS5003;42804;55.762;38.084;2023-02-11T09:48:16;12.50;12.50;8.00
56495;PMS5003;42804;55.762;38.084;2023-02-11T09:50:48;18.00;13.00;7.00
56495;PMS5003;42804;55.762;38.084;2023-02-11T09:53:19;18.60;17.20;7.80
56495;PMS5003;42804;55.762;38.084;2023-02-11T09:55:51;18.50;15.00;9.50
56495;PMS5003;42804;55.762;38.084;2023-02-11T09:58:23;15.00;12.00;7.40
56495;PMS5003;42804;55.762;38.084;2023-02-11T10:00:55;23.60;20.00;12.60
56495;PMS5003;42804;55.762;38.084;2023-02-11T10:06:17;15.20;12.40;9.20
56495;PMS5003;42804;55.762;38.084;2023-02-11T10:08:50;18.80;17.00;10.40
56495;PMS5003;42804;55.762;38.084;2023-02-11T10:11:20;18.80;13.80;9.20
56495;PMS5003;42804;55.762;38.084;2023-02-11T10:14:00;16.00;13.20;6.80
56495;PMS5003;42804;55.762;38.084;2023-02-11T10:16:36;17.00;12.80;6.80
56495;PMS5003;42804;55.762;38.084;2023-02-11T10:19:14;12.80;10.40;6.60
56495;PMS5003;42804;55.762;38.084;2023-02-11T10:21:50;13.00;12.00;6.00
56495;PMS5003;42804;55.762;38.084;2023-02-11T10:24:20;18.80;15.80;8.20
56495;PMS5003;42804;55.762;38.084;2023-02-11T10:26:49;15.40;12.40;8.20
56495;PMS5003;42804;55.762;38.084;2023-02-11T10:29:27;19.40;15.60;8.60
56495;PMS5003;42804;55.762;38.084;2023-02-11T10:31:58;19.00;16.40;10.00
56495;PMS5003;42804;55.762;38.084;2023-02-11T10:34:27;15.80;13.60;5.60
56495;PMS5003;42804;55.762;38.084;2023-02-11T10:36:57;19.00;15.80;10.00
56495;PMS5003;42804;55.762;38.084;2023-02-11T10:39:26;10.80;9.80;4.60
56495;PMS5003;42804;55.762;38.084;2023-02-11T10:41:56;16.80;14.40;9.00
56495;PMS5003;42804;55.762;38.084;2023-02-11T10:44:26;20.20;15.60;9.00
56495;PMS5003;42804;55.762;38.084;2023-02-11T10:46:56;10.60;8.40;5.60
56495;PMS5003;42804;55.762;38.084;2023-02-11T10:49:35;18.20;13.00;7.80
56495;PMS5003;42804;55.762;38.084;2023-02-11T10:55:01;17.00;14.60;8.60
56495;PMS5003;42804;55.762;38.084;2023-02-11T10:57:33;16.40;14.60;7.00
56495;PMS5003;42804;55.762;38.084;2023-02-11T11:00:14;18.60;17.40;9.40
56495;PMS5003;42804;55.762;38.084;2023-02-11T11:02:51;11.60;11.60;7.40
56495;PMS5003;42804;55.762;38.084;2023-02-11T11:05:20;23.20;16.80;9.00
56495;PMS5003;42804;55.762;38.084;2023-02-11T11:07:51;10.80;5.20;3.20
56495;PMS5003;42804;55.762;38.084;2023-02-11T11:10:26;19.20;15.20;9.00
56495;PMS5003;42804;55.762;38.084;2023-02-11T11:12:55;17.60;15.80;10.20
56495;PMS5003;42804;55.762;38.084;2023-02-11T11:15:24;13.80;13.80;7.40
56495;PMS5003;42804;55.762;38.084;2023-02-11T11:18:08;16.80;15.60;7.80
56495;PMS5003;42804;55.762;38.084;2023-02-11T11:20:53;18.20;16.40;9.00
56495;PMS5003;42804;55.762;38.084;2023-02-11T11:23:22;18.00;13.00;9.20
56495;PMS5003;42804;55.762;38.084;2023-02-11T11:25:59;19.60;16.80;9.20
56495;PMS5003;42804;55.762;38.084;2023-02-11T11:28:34;17.00;15.00;9.00
56495;PMS5003;42804;55.762;38.084;2023-02-11T11:31:11;23.00;20.20;10.40
56495;PMS5003;42804;55.762;38.084;2023-02-11T11:33:40;21.00;18.00;7.40
56495;PMS5003;42804;55.762;38.084;2023-02-11T11:36:19;25.00;21.80;12.20
56495;PMS5003;42804;55.762;38.084;2023-02-11T11:38:50;11.20;9.80;3.20
56495;PMS5003;42804;55.762;38.084;2023-02-11T11:41:23;27.40;21.20;12.60
56495;PMS5003;42804;55.762;38.084;2023-02-11T11:43:53;23.20;17.60;8.20
56495;PMS5003;42804;55.762;38.084;2023-02-11T11:46:23;28.00;22.50;12.50
56495;PMS5003;42804;55.762;38.084;2023-02-11T11:48:54;18.00;16.00;9.75
56495;PMS5003;42804;55.762;38.084;2023-02-11T11:51:23;23.00;15.50;10.00
56495;PMS5003;42804;55.762;38.084;2023-02-11T11:53:54;18.50;17.00;10.00
56495;PMS5003;42804;55.762;38.084;2023-02-11T11:56:26;17.00;15.50;9.50
56495;PMS5003;42804;55.762;38.084;2023-02-11T11:58:57;16.75;12.50;6.00
56495;PMS5003;42804;55.762;38.084;2023-02-11T12:01:30;24.00;19.50;11.00
56495;PMS5003;42804;55.762;38.084;2023-02-11T12:04:12;23.25;18.00;10.00
56495;PMS5003;42804;55.762;38.084;2023-02-11T12:06:51;15.40;12.60;7.00
56495;PMS5003;42804;55.762;38.084;2023-02-11T12:09:23;16.60;13.00;9.00
56495;PMS5003;42804;55.762;38.084;2023-02-11T12:11:59;22.20;15.00;6.60
56495;PMS5003;42804;55.762;38.084;2023-02-11T12:14:33;10.60;6.80;1.00
56495;PMS5003;42804;55.762;38.084;2023-02-11T12:17:10;19.80;18.20;8.60
56495;PMS5003;42804;55.762;38.084;2023-02-11T12:19:51;34.00;30.80;18.40
56495;PMS5003;42804;55.762;38.084;2023-02-11T12:22:25;34.60;25.80;15.80
56495;PMS5003;42804;55.762;38.084;2023-02-11T12:24:59;19.00;14.20;7.40
56495;PMS5003;42804;55.762;38.084;2023-02-11T12:27:39;24.60;19.40;11.20
56495;PMS5003;42804;55.762;38.084;2023-02-11T12:30:15;25.80;22.80;13.00
56495;PMS5003;42804;55.762;38.084;2023-02-11T12:32:47;20.40;16.20;7.20
56495;PMS5003;42804;55.762;38.084;2023-02-11T12:35:23;29.60;23.20;11.20
56495;PMS5003;42804;55.762;38.084;2023-02-11T12:37:57;15.60;14.20;9.40
56495;PMS5003;42804;55.762;38.084;2023-02-11T12:40:36;22.40;19.00;12.00
56495;PMS5003;42804;55.762;38.084;2023-02-11T12:43:14;20.80;15.80;9.60
56495;PMS5003;42804;55.762;38.084;2023-02-11T12:48:38;15.00;10.00;4.00
56495;PMS5003;42804;55.762;38.084;2023-02-11T12:51:13;18.20;15.80;9.00
56495;PMS5003;42804;55.762;38.084;2023-02-11T12:54:01;18.00;14.60;6.80
56495;PMS5003;42804;55.762;38.084;2023-02-11T12:56:36;15.75;10.00;6.00
56495;PMS5003;42804;55.762;38.084;2023-02-11T12:59:11;21.00;18.20;9.80
56495;PMS5003;42804;55.762;38.084;2023-02-11T13:01:41;14.80;13.80;8.60
56495;PMS5003;42804;55.762;38.084;2023-02-11T13:04:12;18.40;13.00;5.60
56495;PMS5003;42804;55.762;38.084;2023-02-11T13:06:44;18.20;14.80;8.80
56495;PMS5003;42804;55.762;38.084;2023-02-11T13:09:15;16.20;12.20;7.00
56495;PMS5003;42804;55.762;38.084;2023-02-11T13:11:48;21.20;18.40;12.00
56495;PMS5003;42804;55.762;38.084;2023-02-11T13:14:23;17.80;14.80;8.80
56495;PMS5003;42804;55.762;38.084;2023-02-11T13:16:52;20.00;16.00;10.80
56495;PMS5003;42804;55.762;38.084;2023-02-11T13:19:22;14.20;12.40;7.00
56495;PMS5003;42804;55.762;38.084;2023-02-11T13:21:55;14.80;12.80;6.00
56495;PMS5003;42804;55.762;38.084;2023-02-11T13:24:28;25.40;16.00;10.00
56495;PMS5003;42804;55.762;38.084;2023-02-11T13:27:04;18.60;14.40;10.00
56495;PMS5003;42804;55.762;38.084;2023-02-11T13:29:38;17.60;13.00;7.00
56495;PMS5003;42804;55.762;38.084;2023-02-11T13:32:10;6.40;6.40;3.20
56495;PMS5003;42804;55.762;38.084;2023-02-11T13:34:56;24.60;18.00;9.40
56495;PMS5003;42804;55.762;38.084;2023-02-11T13:37:25;18.00;17.20;10.00
56495;PMS5003;42804;55.762;38.084;2023-02-11T13:39:57;18.00;15.60;9.60
56495;PMS5003;42804;55.762;38.084;2023-02-11T13:42:26;22.60;19.20;9.20
56495;PMS5003;42804;55.762;38.084;2023-02-11T13:44:56;22.60;18.40;12.00
56495;PMS5003;42804;55.762;38.084;2023-02-11T13:47:26;15.60;13.00;9.60
56495;PMS5003;42804;55.762;38.084;2023-02-11T13:49:56;19.60;17.20;10.80
56495;PMS5003;42804;55.762;38.084;2023-02-11T13:52:28;24.00;14.20;9.00
56495;PMS5003;42804;55.762;38.084;2023-02-11T13:54:58;23.20;18.40;10.80
56495;PMS5003;42804;55.762;38.084;2023-02-11T13:57:30;25.20;22.00;10.80
56495;PMS5003;42804;55.762;38.084;2023-02-11T14:00:05;19.80;14.20;9.00
56495;PMS5003;42804;55.762;38.084;2023-02-11T14:02:36;27.80;23.00;13.40
56495;PMS5003;42804;55.762;38.084;2023-02-11T14:05:25;23.80;18.80;10.80
56495;PMS5003;42804;55.762;38.084;2023-02-11T14:08:18;22.40;17.80;9.80
56495;PMS5003;42804;55.762;38.084;2023-02-11T14:14:02;13.80;11.00;4.80
56495;PMS5003;42804;55.762;38.084;2023-02-11T14:19:31;15.40;11.00;4.80
56495;PMS5003;42804;55.762;38.084;2023-02-11T14:22:00;21.20;20.60;12.20
56495;PMS5003;42804;55.762;38.084;2023-02-11T14:24:43;17.20;14.20;8.60
56495;PMS5003;42804;55.762;38.084;2023-02-11T14:27:14;17.20;15.80;7.00
56495;PMS5003;42804;55.762;38.084;2023-02-11T14:29:49;22.00;19.00;10.00
56495;PMS5003;42804;55.762;38.084;2023-02-11T14:32:26;12.60;10.00;3.00